createdAt,value
2019-04-28T00:00:37.038Z,4.37
2019-04-28T00:03:05.764Z,5.03
2019-04-28T00:05:34.265Z,4.20
2019-04-28T00:08:02.760Z,4.47
2019-04-28T00:10:32.032Z,4.50
2019-04-28T00:13:01.049Z,4.47
2019-04-28T00:15:30.803Z,4.40
2019-04-28T00:17:59.552Z,4.70
2019-04-28T00:20:32.389Z,4.37
2019-04-28T00:23:03.841Z,4.50
2019-04-28T00:25:52.378Z,5.13
2019-04-28T00:28:21.266Z,4.30
2019-04-28T00:30:51.617Z,4.67
2019-04-28T00:33:20.086Z,4.27
2019-04-28T00:35:48.550Z,4.60
2019-04-28T00:38:17.031Z,4.70
2019-04-28T00:40:45.566Z,5.60
2019-04-28T00:43:14.078Z,4.60
2019-04-28T00:45:42.565Z,4.33
2019-04-28T00:48:11.056Z,4.43
2019-04-28T00:50:41.339Z,4.60
2019-04-28T00:53:11.668Z,4.17
2019-04-28T00:55:41.674Z,4.67
2019-04-28T00:58:10.895Z,4.53
2019-04-28T01:00:43.674Z,4.50
2019-04-28T01:03:12.149Z,3.73
2019-04-28T01:05:41.192Z,4.20
2019-04-28T01:08:10.989Z,3.80
2019-04-28T01:10:40.992Z,4.17
2019-04-28T01:13:11.597Z,4.40
2019-04-28T01:15:47.329Z,4.73
2019-04-28T01:18:17.458Z,4.00
2019-04-28T01:20:46.019Z,4.07
2019-04-28T01:23:14.557Z,3.77
2019-04-28T01:25:43.036Z,3.97
2019-04-28T01:28:11.542Z,3.83
2019-04-28T01:30:47.225Z,4.27
2019-04-28T01:33:20.640Z,3.60
2019-04-28T01:35:49.438Z,3.50
2019-04-28T01:38:17.954Z,4.10
2019-04-28T01:40:46.528Z,3.93
2019-04-28T01:43:15.024Z,3.40
2019-04-28T01:45:43.562Z,4.57
2019-04-28T01:48:12.034Z,3.50
2019-04-28T01:50:40.540Z,3.60
2019-04-28T01:53:09.729Z,4.10
2019-04-28T01:55:39.307Z,3.77
2019-04-28T01:58:09.579Z,4.10
2019-04-28T02:00:40.428Z,3.97
2019-04-28T02:03:10.346Z,3.93
2019-04-28T02:05:40.533Z,4.03
2019-04-28T02:08:10.188Z,4.23
2019-04-28T02:10:40.156Z,4.30
2019-04-28T02:13:09.605Z,4.30
2019-04-28T02:15:40.033Z,3.90
2019-04-28T02:18:09.939Z,4.20
2019-04-28T02:20:40.136Z,3.97
2019-04-28T02:23:10.274Z,4.37
2019-04-28T02:25:39.894Z,4.60
2019-04-28T02:28:09.365Z,4.10
2019-04-28T02:30:47.693Z,3.83
2019-04-28T02:33:11.054Z,4.83
2019-04-28T02:35:41.766Z,4.27
2019-04-28T02:38:11.502Z,4.13
2019-04-28T02:40:40.734Z,4.20
2019-04-28T02:43:11.388Z,3.80
2019-04-28T02:45:41.285Z,4.40
2019-04-28T02:48:11.677Z,4.10
2019-04-28T02:51:01.246Z,3.67
2019-04-28T02:53:33.714Z,4.00
2019-04-28T02:56:01.435Z,4.17
2019-04-28T02:58:31.271Z,3.80
2019-04-28T03:01:11.192Z,4.07
2019-04-28T03:03:30.835Z,4.57
2019-04-28T03:06:01.353Z,4.17
2019-04-28T03:08:30.649Z,4.20
2019-04-28T03:11:00.952Z,4.27
2019-04-28T03:13:31.233Z,4.50
2019-04-28T03:16:01.452Z,4.70
2019-04-28T03:18:31.707Z,4.03
2019-04-28T03:21:03.535Z,4.40
2019-04-28T03:23:31.363Z,3.50
2019-04-28T03:26:04.066Z,4.43
2019-04-28T03:28:34.197Z,4.27
2019-04-28T03:31:34.803Z,3.97
2019-04-28T03:33:41.362Z,4.47
2019-04-28T03:36:08.626Z,3.87
2019-04-28T03:38:35.121Z,3.77
2019-04-28T03:41:03.927Z,4.30
2019-04-28T03:43:32.429Z,4.20
2019-04-28T03:46:03.543Z,3.87
2019-04-28T03:48:33.761Z,3.67
2019-04-28T03:51:02.404Z,3.57
2019-04-28T03:53:31.401Z,4.00
2019-04-28T03:56:01.571Z,3.80
2019-04-28T03:58:31.163Z,3.87
2019-04-28T04:01:02.688Z,3.90
2019-04-28T04:03:30.601Z,3.73
2019-04-28T04:06:00.868Z,4.70
2019-04-28T04:08:31.036Z,3.80
2019-04-28T04:11:01.444Z,4.40
2019-04-28T04:13:34.471Z,3.90
2019-04-28T04:16:16.443Z,3.93
2019-04-28T04:18:52.987Z,3.77
2019-04-28T04:21:21.353Z,4.20
2019-04-28T04:23:50.991Z,4.10
2019-04-28T04:26:21.429Z,4.10
2019-04-28T04:28:51.472Z,4.13
2019-04-28T04:31:20.128Z,4.50
2019-04-28T04:33:50.569Z,4.13
2019-04-28T04:36:21.097Z,4.50
2019-04-28T04:38:51.230Z,3.57
2019-04-28T04:41:20.229Z,4.53
2019-04-28T04:43:51.282Z,4.27
2019-04-28T04:46:21.855Z,3.83
2019-04-28T04:48:51.246Z,4.27
2019-04-28T04:51:21.331Z,4.80
2019-04-28T04:53:51.352Z,4.63
2019-04-28T04:56:21.395Z,4.63
2019-04-28T04:58:50.571Z,4.60
2019-04-28T05:01:33.183Z,3.90
2019-04-28T05:04:09.586Z,4.93
2019-04-28T05:06:41.745Z,3.73
2019-04-28T05:09:10.783Z,4.40
2019-04-28T05:11:40.143Z,4.33
2019-04-28T05:14:11.531Z,4.53
2019-04-28T05:16:39.981Z,3.80
2019-04-28T05:19:10.119Z,4.90
2019-04-28T05:21:40.169Z,4.37
2019-04-28T05:24:25.231Z,4.43
2019-04-28T05:26:53.774Z,4.67
2019-04-28T05:29:26.950Z,4.53
2019-04-28T05:31:54.760Z,4.43
2019-04-28T05:34:24.267Z,4.20
2019-04-28T05:36:53.029Z,4.37
2019-04-28T05:39:21.539Z,4.47
2019-04-28T05:41:50.510Z,4.53
2019-04-28T05:44:20.172Z,5.50
2019-04-28T05:46:50.632Z,4.47
2019-04-28T05:49:23.999Z,4.17
2019-04-28T05:51:54.094Z,4.10
2019-04-28T05:54:27.164Z,4.27
2019-04-28T05:57:02.438Z,4.30
2019-04-28T05:59:50.006Z,4.83
2019-04-28T06:02:39.697Z,4.93
2019-04-28T06:05:10.060Z,4.33
2019-04-28T06:07:42.840Z,4.40
2019-04-28T06:10:12.489Z,4.70
2019-04-28T06:12:41.160Z,4.30
2019-04-28T06:15:11.817Z,4.20
2019-04-28T06:17:40.119Z,4.40
2019-04-28T06:20:11.439Z,5.07
2019-04-28T06:22:39.171Z,5.13
2019-04-28T06:25:07.828Z,4.90
2019-04-28T06:27:36.578Z,4.60
2019-04-28T06:30:06.755Z,4.50
2019-04-28T06:32:35.679Z,5.00
2019-04-28T06:35:05.873Z,4.73
2019-04-28T06:37:34.355Z,4.53
2019-04-28T06:40:04.287Z,4.70
2019-04-28T06:42:32.753Z,4.90
2019-04-28T06:45:01.546Z,4.63
2019-04-28T06:47:30.009Z,4.77
2019-04-28T06:50:00.027Z,5.03
2019-04-28T06:52:28.503Z,5.07
2019-04-28T06:54:56.985Z,4.90
2019-04-28T06:57:25.485Z,5.13
2019-04-28T06:59:53.935Z,4.80
2019-04-28T07:02:22.377Z,5.67
2019-04-28T07:05:01.206Z,4.63
2019-04-28T07:07:21.090Z,5.37
2019-04-28T07:09:49.558Z,5.67
2019-04-28T07:12:18.085Z,5.53
2019-04-28T07:14:46.541Z,6.07
2019-04-28T07:17:15.041Z,5.50
2019-04-28T07:19:45.180Z,6.37
2019-04-28T07:22:27.236Z,5.90
2019-04-28T07:24:55.808Z,5.90
2019-04-28T07:27:24.263Z,6.30
2019-04-28T07:29:52.754Z,6.50
2019-04-28T07:32:22.082Z,7.20
2019-04-28T07:34:50.724Z,6.20
2019-04-28T07:37:19.421Z,6.47
2019-04-28T07:39:47.988Z,6.47
2019-04-28T07:42:16.503Z,6.63
2019-04-28T07:44:45.103Z,5.93
2019-04-28T07:47:15.505Z,5.77
2019-04-28T07:49:44.055Z,5.83
2019-04-28T07:52:14.106Z,5.10
2019-04-28T07:54:42.589Z,5.63
2019-04-28T07:57:11.042Z,4.73
2019-04-28T07:59:39.573Z,5.03
2019-04-28T08:02:08.388Z,5.00
2019-04-28T08:04:36.850Z,4.60
2019-04-28T08:07:05.293Z,3.80
2019-04-28T08:09:33.888Z,3.23
2019-04-28T08:12:02.401Z,3.33
2019-04-28T08:14:30.912Z,3.37
2019-04-28T08:16:59.416Z,3.10
2019-04-28T08:19:27.940Z,3.17
2019-04-28T08:21:56.466Z,2.93
2019-04-28T08:24:24.929Z,3.23
2019-04-28T08:26:53.416Z,3.60
2019-04-28T08:29:22.225Z,3.30
2019-04-28T08:31:55.037Z,3.03
2019-04-28T08:34:23.495Z,3.23
2019-04-28T08:36:51.949Z,3.20
2019-04-28T08:39:23.418Z,3.13
2019-04-28T08:41:50.620Z,2.80
2019-04-28T08:44:19.201Z,3.20
2019-04-28T08:46:47.640Z,3.57
2019-04-28T08:49:16.107Z,3.50
2019-04-28T08:51:44.544Z,2.90
2019-04-28T08:54:13.057Z,3.80
2019-04-28T08:56:41.499Z,3.70
2019-04-28T08:59:10.029Z,3.83
2019-04-28T09:01:38.547Z,3.40
2019-04-28T09:04:15.120Z,3.50
2019-04-28T09:06:37.294Z,3.57
2019-04-28T09:09:07.878Z,3.40
2019-04-28T09:11:36.323Z,2.93
2019-04-28T09:14:05.199Z,3.57
2019-04-28T09:16:34.557Z,3.00
2019-04-28T09:19:03.007Z,3.50
2019-04-28T09:21:31.478Z,3.70
2019-04-28T09:23:59.951Z,3.50
2019-04-28T09:26:28.468Z,3.57
2019-04-28T09:28:56.922Z,3.90
2019-04-28T09:31:25.380Z,4.17
2019-04-28T09:33:53.874Z,4.20
2019-04-28T09:36:22.341Z,4.13
2019-04-28T09:38:51.167Z,4.10
2019-04-28T09:41:19.656Z,4.40
2019-04-28T09:43:52.279Z,4.30
2019-04-28T09:46:22.386Z,4.23
2019-04-28T09:48:50.936Z,4.60
2019-04-28T09:51:19.508Z,4.57
2019-04-28T09:53:48.179Z,4.47
2019-04-28T09:56:16.774Z,4.40
2019-04-28T09:58:45.212Z,4.67
2019-04-28T10:01:13.643Z,4.50
2019-04-28T10:03:42.225Z,4.87
2019-04-28T10:06:10.672Z,5.00
2019-04-28T10:08:39.441Z,4.80
2019-04-28T10:11:07.913Z,4.60
2019-04-28T10:13:37.932Z,5.03
2019-04-28T10:16:07.805Z,4.87
2019-04-28T10:18:36.612Z,5.53
2019-04-28T10:21:05.456Z,5.13
2019-04-28T10:23:33.917Z,5.43
2019-04-28T10:26:02.815Z,5.40
2019-04-28T10:28:31.304Z,5.27
2019-04-28T10:30:59.729Z,5.20
2019-04-28T10:33:28.193Z,5.00
2019-04-28T10:35:56.708Z,4.83
2019-04-28T10:38:25.167Z,4.67
2019-04-28T10:40:58.049Z,4.20
2019-04-28T10:43:26.748Z,4.57
2019-04-28T10:45:55.164Z,4.07
2019-04-28T10:48:23.664Z,4.30
2019-04-28T10:50:52.117Z,4.30
2019-04-28T10:53:20.552Z,4.57
2019-04-28T10:55:48.978Z,4.00
2019-04-28T10:58:17.421Z,4.33
2019-04-28T11:00:45.888Z,4.47
2019-04-28T11:03:14.338Z,3.93
2019-04-28T11:05:46.262Z,3.47
2019-04-28T11:08:24.946Z,3.40
2019-04-28T11:10:53.668Z,3.70
2019-04-28T11:13:22.209Z,3.17
2019-04-28T11:15:50.999Z,3.20
2019-04-28T11:18:21.193Z,3.20
2019-04-28T11:20:49.690Z,3.30
2019-04-28T11:23:18.229Z,3.73
2019-04-28T11:25:46.745Z,2.50
2019-04-28T11:28:15.221Z,2.70
2019-04-28T11:30:43.719Z,2.63
2019-04-28T11:33:30.242Z,2.90
2019-04-28T11:35:59.196Z,3.30
2019-04-28T11:38:27.604Z,3.83
2019-04-28T11:40:56.056Z,2.53
2019-04-28T11:43:24.573Z,2.50
2019-04-28T11:45:52.996Z,2.97
2019-04-28T11:48:21.471Z,3.03
2019-04-28T11:50:50.588Z,16.40
2019-04-28T11:53:20.269Z,8.80
2019-04-28T11:55:49.321Z,3.37
2019-04-28T11:58:17.794Z,3.40
2019-04-28T12:00:46.692Z,3.10
2019-04-28T12:03:17.240Z,4.27
2019-04-28T12:05:47.010Z,4.87
2019-04-28T12:08:17.605Z,5.80
2019-04-28T12:10:47.872Z,5.00
2019-04-28T12:13:36.708Z,6.00
2019-04-28T12:16:16.416Z,2.70
2019-04-28T12:18:46.581Z,4.33
2019-04-28T12:21:16.270Z,4.43
2019-04-28T12:23:44.959Z,3.13
2019-04-28T12:26:13.376Z,6.13
2019-04-28T12:28:41.808Z,4.40
2019-04-28T12:31:10.523Z,1.63
2019-04-28T12:33:42.415Z,11.27
2019-04-28T12:36:12.389Z,5.03
2019-04-28T12:38:40.849Z,3.03
2019-04-28T12:41:09.314Z,3.30
2019-04-28T12:43:38.531Z,2.37
2019-04-28T12:46:06.948Z,1.60
2019-04-28T12:48:35.416Z,1.70
2019-04-28T12:51:05.192Z,1.63
2019-04-28T12:53:33.691Z,1.83
2019-04-28T12:56:02.221Z,1.60
2019-04-28T12:58:30.673Z,1.70
2019-04-28T13:01:17.971Z,2.00
2019-04-28T13:04:02.634Z,2.17
2019-04-28T13:06:31.635Z,1.87
2019-04-28T13:09:00.339Z,1.60
2019-04-28T13:11:28.795Z,1.63
2019-04-28T13:13:57.298Z,1.90
2019-04-28T13:16:25.776Z,1.87
2019-04-28T13:18:54.212Z,2.27
2019-04-28T13:21:22.662Z,2.00
2019-04-28T13:23:51.141Z,1.83
2019-04-28T13:26:19.611Z,1.60
2019-04-28T13:28:48.061Z,1.67
2019-04-28T13:31:16.481Z,1.73
2019-04-28T13:33:55.733Z,1.40
2019-04-28T13:36:15.457Z,1.70
2019-04-28T13:38:44.077Z,1.47
2019-04-28T13:41:12.504Z,1.50
2019-04-28T13:43:40.964Z,1.60
2019-04-28T13:46:09.492Z,1.53
2019-04-28T13:48:38.112Z,1.40
2019-04-28T13:51:12.519Z,1.37
2019-04-28T13:53:41.090Z,1.77
2019-04-28T13:56:10.079Z,1.40
2019-04-28T13:58:41.563Z,1.33
2019-04-28T14:01:11.891Z,1.70
2019-04-28T14:03:50.945Z,1.57
2019-04-28T14:06:28.095Z,1.20
2019-04-28T14:08:51.441Z,1.57
2019-04-28T14:11:19.884Z,1.53
2019-04-28T14:13:48.334Z,1.43
2019-04-28T14:16:16.742Z,1.40
2019-04-28T14:18:45.150Z,1.37
2019-04-28T14:21:13.577Z,1.80
2019-04-28T14:23:41.955Z,1.47
2019-04-28T14:26:10.366Z,1.27
2019-04-28T14:28:38.763Z,1.40
2019-04-28T14:31:07.166Z,1.60
2019-04-28T14:33:35.642Z,1.37
2019-04-28T14:36:04.083Z,1.50
2019-04-28T14:38:32.475Z,1.37
2019-04-28T14:41:00.879Z,1.43
2019-04-28T14:43:29.419Z,1.70
2019-04-28T14:45:58.067Z,1.50
2019-04-28T14:48:26.543Z,1.73
2019-04-28T14:50:54.962Z,1.50
2019-04-28T14:53:23.383Z,1.83
2019-04-28T14:55:51.450Z,1.23
2019-04-28T14:58:19.846Z,1.53
2019-04-28T15:00:52.836Z,1.57
2019-04-28T15:03:22.909Z,1.70
2019-04-28T15:05:55.627Z,1.53
2019-04-28T15:08:34.637Z,1.57
2019-04-28T15:11:13.691Z,1.17
2019-04-28T15:13:42.196Z,1.40
2019-04-28T15:16:10.653Z,1.30
2019-04-28T15:18:39.038Z,1.20
2019-04-28T15:21:07.444Z,1.60
2019-04-28T15:23:35.846Z,1.10
2019-04-28T15:26:04.320Z,1.30
2019-04-28T15:28:32.723Z,1.77
2019-04-28T15:31:01.127Z,1.60
2019-04-28T15:33:29.764Z,1.30
2019-04-28T15:35:58.178Z,1.10
2019-04-28T15:38:26.648Z,1.30
2019-04-28T15:40:55.043Z,1.70
2019-04-28T15:43:23.450Z,1.40
2019-04-28T15:45:51.855Z,1.53
2019-04-28T15:48:20.262Z,1.60
2019-04-28T15:50:48.676Z,1.40
2019-04-28T15:53:17.074Z,1.33
2019-04-28T15:55:49.726Z,1.70
2019-04-28T15:58:34.776Z,1.80
2019-04-28T16:01:03.303Z,1.60
2019-04-28T16:03:31.707Z,1.93
2019-04-28T16:06:00.237Z,5.83
2019-04-28T16:08:28.825Z,3.30
2019-04-28T16:10:57.246Z,1.73
2019-04-28T16:13:25.785Z,1.50
2019-04-28T16:15:54.199Z,2.93
2019-04-28T16:18:22.600Z,2.73
2019-04-28T16:20:51.011Z,1.80
2019-04-28T16:23:19.419Z,1.70
2019-04-28T16:25:47.823Z,1.60
2019-04-28T16:28:16.227Z,1.63
2019-04-28T16:30:44.643Z,1.57
2019-04-28T16:33:13.112Z,1.40
2019-04-28T16:35:41.510Z,1.70
2019-04-28T16:38:09.923Z,1.43
2019-04-28T16:40:38.333Z,1.77
2019-04-28T16:43:09.818Z,1.53
2019-04-28T16:45:38.399Z,1.73
2019-04-28T16:48:06.798Z,1.80
2019-04-28T16:50:35.435Z,1.60
2019-04-28T16:53:03.919Z,1.60
2019-04-28T16:55:39.919Z,1.77
2019-04-28T16:58:12.892Z,2.10
2019-04-28T17:00:54.895Z,1.60
2019-04-28T17:03:23.390Z,1.70
2019-04-28T17:05:51.787Z,1.40
2019-04-28T17:08:20.496Z,2.10
2019-04-28T17:10:48.936Z,1.70
2019-04-28T17:13:17.363Z,3.90
2019-04-28T17:15:45.763Z,1.73
2019-04-28T17:18:14.175Z,1.50
2019-04-28T17:20:42.574Z,1.37
2019-04-28T17:23:11.211Z,1.40
2019-04-28T17:25:39.834Z,1.10
2019-04-28T17:28:08.236Z,1.13
2019-04-28T17:30:36.636Z,1.70
2019-04-28T17:33:05.066Z,1.93
2019-04-28T17:35:33.839Z,1.47
2019-04-28T17:38:06.626Z,1.50
2019-04-28T17:40:32.746Z,1.70
2019-04-28T17:43:01.147Z,3.17
2019-04-28T17:45:29.549Z,5.83
2019-04-28T17:47:59.615Z,4.73
2019-04-28T17:50:28.456Z,4.13
2019-04-28T17:52:56.857Z,3.80
2019-04-28T17:55:25.275Z,6.00
2019-04-28T17:57:53.678Z,5.10
2019-04-28T18:00:32.169Z,3.70
2019-04-28T18:03:11.007Z,4.27
2019-04-28T18:05:41.084Z,3.63
2019-04-28T18:08:20.433Z,3.50
2019-04-28T18:10:39.740Z,3.17
2019-04-28T18:13:08.148Z,2.57
2019-04-28T18:15:38.186Z,2.80
2019-04-28T18:18:10.971Z,2.50
2019-04-28T18:20:39.618Z,2.73
2019-04-28T18:23:08.032Z,2.27
2019-04-28T18:25:36.436Z,3.00
2019-04-28T18:28:04.851Z,3.10
2019-04-28T18:30:34.895Z,2.93
2019-04-28T18:33:07.718Z,3.57
2019-04-28T18:35:40.447Z,3.20
2019-04-28T18:38:19.172Z,3.83
2019-04-28T18:40:51.723Z,4.13
2019-04-28T18:43:21.771Z,4.00
2019-04-28T18:45:50.167Z,3.47
2019-04-28T18:48:18.612Z,4.63
2019-04-28T18:50:47.059Z,3.97
2019-04-28T18:53:15.468Z,4.40
2019-04-28T18:55:43.899Z,4.57
2019-04-28T18:58:12.301Z,4.27
2019-04-28T19:00:42.583Z,5.27
2019-04-28T19:03:11.008Z,4.67
2019-04-28T19:05:41.042Z,4.73
2019-04-28T19:08:17.223Z,4.57
2019-04-28T19:10:50.635Z,5.10
2019-04-28T19:13:23.182Z,5.10
2019-04-28T19:16:09.283Z,4.73
2019-04-28T19:18:42.354Z,4.93
2019-04-28T19:21:10.755Z,5.30
2019-04-28T19:23:39.233Z,4.97
2019-04-28T19:26:07.630Z,4.77
2019-04-28T19:28:36.031Z,4.97
2019-04-28T19:31:04.431Z,5.27
2019-04-28T19:33:32.828Z,5.17
2019-04-28T19:36:01.226Z,5.37
2019-04-28T19:38:29.642Z,5.50
2019-04-28T19:40:58.046Z,5.60
2019-04-28T19:43:26.439Z,5.10
2019-04-28T19:45:56.525Z,5.03
2019-04-28T19:48:24.915Z,5.70
2019-04-28T19:50:53.315Z,6.33
2019-04-28T19:53:21.718Z,6.27
2019-04-28T19:55:51.761Z,6.43
2019-04-28T19:58:21.799Z,6.80
2019-04-28T20:00:54.409Z,7.17
2019-04-28T20:03:22.803Z,7.13
2019-04-28T20:05:51.196Z,6.70
2019-04-28T20:08:19.614Z,8.23
2019-04-28T20:10:48.011Z,9.07
2019-04-28T20:13:16.423Z,9.07
2019-04-28T20:15:44.826Z,9.00
2019-04-28T20:18:13.228Z,9.33
2019-04-28T20:20:41.629Z,7.90
2019-04-28T20:23:10.046Z,7.87
2019-04-28T20:25:38.434Z,7.23
2019-04-28T20:28:06.834Z,7.30
2019-04-28T20:30:35.358Z,8.33
2019-04-28T20:33:07.231Z,8.27
2019-04-28T20:35:35.584Z,8.17
2019-04-28T20:38:08.487Z,7.77
2019-04-28T20:40:38.522Z,7.33
2019-04-28T20:43:11.256Z,6.97
2019-04-28T20:45:39.946Z,7.30
2019-04-28T20:48:08.347Z,7.03
2019-04-28T20:50:36.742Z,7.70
2019-04-28T20:53:05.138Z,7.50
2019-04-28T20:55:33.534Z,8.47
2019-04-28T20:58:01.938Z,9.47
2019-04-28T21:00:30.343Z,9.50
2019-04-28T21:02:58.741Z,9.20
2019-04-28T21:05:27.130Z,8.93
2019-04-28T21:07:55.536Z,9.97
2019-04-28T21:10:36.900Z,8.57
2019-04-28T21:12:54.291Z,10.50
2019-04-28T21:15:23.102Z,11.23
2019-04-28T21:17:51.499Z,12.43
2019-04-28T21:20:19.904Z,12.57
2019-04-28T21:22:48.319Z,12.27
2019-04-28T21:25:16.718Z,10.57
2019-04-28T21:27:45.120Z,9.90
2019-04-28T21:30:13.658Z,9.67
2019-04-28T21:32:42.071Z,9.37
2019-04-28T21:35:10.603Z,9.90
2019-04-28T21:37:39.002Z,8.93
2019-04-28T21:40:09.921Z,9.07
2019-04-28T21:42:56.067Z,9.20
2019-04-28T21:45:42.158Z,9.87
2019-04-28T21:48:11.529Z,9.77
2019-04-28T21:50:39.923Z,8.90
2019-04-28T21:53:08.407Z,8.27
2019-04-28T21:55:36.802Z,9.93
2019-04-28T21:58:05.202Z,11.37
2019-04-28T22:00:55.967Z,10.40
2019-04-28T22:03:24.536Z,9.77
2019-04-28T22:05:52.942Z,10.47
2019-04-28T22:08:21.372Z,11.00
2019-04-28T22:10:49.830Z,11.07
2019-04-28T22:13:18.230Z,10.47
2019-04-28T22:15:46.643Z,11.73
2019-04-28T22:18:15.043Z,12.13
2019-04-28T22:20:43.446Z,11.93
2019-04-28T22:23:18.768Z,12.40
2019-04-28T22:25:43.633Z,10.93
2019-04-28T22:28:12.030Z,11.03
2019-04-28T22:30:40.459Z,10.50
2019-04-28T22:33:08.858Z,10.40
2019-04-28T22:35:37.263Z,10.43
2019-04-28T22:38:05.690Z,11.00
2019-04-28T22:40:34.093Z,10.50
2019-04-28T22:43:02.502Z,10.90
2019-04-28T22:45:30.906Z,11.10
2019-04-28T22:47:59.615Z,10.60
2019-04-28T22:50:36.765Z,9.93
2019-04-28T22:53:05.233Z,10.03
2019-04-28T22:55:47.090Z,9.50
2019-04-28T22:58:22.816Z,10.60
2019-04-28T23:01:00.499Z,10.20
2019-04-28T23:03:33.318Z,10.33
2019-04-28T23:06:01.718Z,9.97
2019-04-28T23:08:30.190Z,11.90
2019-04-28T23:10:58.595Z,9.23
2019-04-28T23:13:27.002Z,10.50
2019-04-28T23:15:55.440Z,11.37
2019-04-28T23:18:23.906Z,11.30
2019-04-28T23:20:57.058Z,12.40
2019-04-28T23:23:25.546Z,11.17
2019-04-28T23:25:53.951Z,10.70
2019-04-28T23:28:22.346Z,11.27
2019-04-28T23:30:50.762Z,10.63
2019-04-28T23:33:19.234Z,10.37
2019-04-28T23:35:47.635Z,10.37
2019-04-28T23:38:16.048Z,10.83
2019-04-28T23:40:50.111Z,10.70
2019-04-28T23:43:20.158Z,9.70
2019-04-28T23:45:48.564Z,11.27
2019-04-28T23:48:16.967Z,10.20
2019-04-28T23:51:02.163Z,9.97
2019-04-28T23:53:48.423Z,9.17
2019-04-28T23:56:16.831Z,10.40
2019-04-28T23:58:45.407Z,10.47
